sensor_id;sensor_type;location;lat;lon;timestamp;P1;durP1;ratioP1;P2;durP2;ratioP2
4595;SDS011;2310;49.978;8.742;2024-01-10T00:00:28;31.67;;;18.90;;
4595;SDS011;2310;49.978;8.742;2024-01-10T00:04:29;28.30;;;17.70;;
4595;SDS011;2310;49.978;8.742;2024-01-10T00:08:30;26.40;;;17.30;;
4595;SDS011;2310;49.978;8.742;2024-01-10T00:12:32;28.67;;;17.50;;
4595;SDS011;2310;49.978;8.742;2024-01-10T00:16:35;29.47;;;20.73;;
4595;SDS011;2310;49.978;8.742;2024-01-10T00:20:37;35.50;;;19.50;;
4595;SDS011;2310;49.978;8.742;2024-01-10T00:24:38;35.40;;;19.00;;
4595;SDS011;2310;49.978;8.742;2024-01-10T00:28:39;35.47;;;18.07;;
4595;SDS011;2310;49.978;8.742;2024-01-10T00:32:41;33.40;;;20.50;;
4595;SDS011;2310;49.978;8.742;2024-01-10T00:36:42;35.10;;;20.67;;
4595;SDS011;2310;49.978;8.742;2024-01-10T00:40:44;35.30;;;20.43;;
4595;SDS011;2310;49.978;8.742;2024-01-10T00:44:45;35.93;;;21.57;;
4595;SDS011;2310;49.978;8.742;2024-01-10T00:48:46;34.27;;;21.60;;
4595;SDS011;2310;49.978;8.742;2024-01-10T00:52:48;31.70;;;20.77;;
4595;SDS011;2310;49.978;8.742;2024-01-10T00:56:49;33.83;;;20.37;;
4595;SDS011;2310;49.978;8.742;2024-01-10T01:00:51;39.03;;;21.40;;
4595;SDS011;2310;49.978;8.742;2024-01-10T01:04:53;31.90;;;21.40;;
4595;SDS011;2310;49.978;8.742;2024-01-10T01:08:54;37.03;;;20.33;;
4595;SDS011;2310;49.978;8.742;2024-01-10T01:12:57;35.57;;;22.43;;
4595;SDS011;2310;49.978;8.742;2024-01-10T01:16:59;37.97;;;21.60;;
4595;SDS011;2310;49.978;8.742;2024-01-10T01:21:00;32.10;;;21.00;;
4595;SDS011;2310;49.978;8.742;2024-01-10T01:25:01;33.17;;;20.13;;
4595;SDS011;2310;49.978;8.742;2024-01-10T01:29:03;37.30;;;21.80;;
4595;SDS011;2310;49.978;8.742;2024-01-10T01:33:05;41.03;;;22.83;;
4595;SDS011;2310;49.978;8.742;2024-01-10T01:37:06;30.60;;;19.60;;
4595;SDS011;2310;49.978;8.742;2024-01-10T01:41:08;33.20;;;20.30;;
4595;SDS011;2310;49.978;8.742;2024-01-10T01:45:09;33.60;;;20.47;;
4595;SDS011;2310;49.978;8.742;2024-01-10T01:49:11;38.43;;;22.07;;
4595;SDS011;2310;49.978;8.742;2024-01-10T01:53:13;36.50;;;21.70;;
4595;SDS011;2310;49.978;8.742;2024-01-10T01:57:15;36.77;;;20.00;;
4595;SDS011;2310;49.978;8.742;2024-01-10T02:01:17;31.53;;;21.60;;
4595;SDS011;2310;49.978;8.742;2024-01-10T02:05:23;30.20;;;20.60;;
4595;SDS011;2310;49.978;8.742;2024-01-10T02:09:24;32.97;;;20.60;;
4595;SDS011;2310;49.978;8.742;2024-01-10T02:13:26;35.37;;;20.40;;
4595;SDS011;2310;49.978;8.742;2024-01-10T02:17:28;38.93;;;21.63;;
4595;SDS011;2310;49.978;8.742;2024-01-10T02:21:30;31.53;;;19.90;;
4595;SDS011;2310;49.978;8.742;2024-01-10T02:25:31;33.80;;;21.70;;
4595;SDS011;2310;49.978;8.742;2024-01-10T02:29:33;37.93;;;21.83;;
4595;SDS011;2310;49.978;8.742;2024-01-10T02:33:35;38.50;;;21.97;;
4595;SDS011;2310;49.978;8.742;2024-01-10T02:37:37;35.00;;;21.80;;
4595;SDS011;2310;49.978;8.742;2024-01-10T02:41:38;38.47;;;21.23;;
4595;SDS011;2310;49.978;8.742;2024-01-10T02:45:40;35.63;;;22.63;;
4595;SDS011;2310;49.978;8.742;2024-01-10T02:49:41;32.57;;;21.70;;
4595;SDS011;2310;49.978;8.742;2024-01-10T02:53:43;36.10;;;21.07;;
4595;SDS011;2310;49.978;8.742;2024-01-10T02:57:44;38.60;;;22.93;;
4595;SDS011;2310;49.978;8.742;2024-01-10T03:01:45;42.03;;;24.07;;
4595;SDS011;2310;49.978;8.742;2024-01-10T03:05:47;35.80;;;21.90;;
4595;SDS011;2310;49.978;8.742;2024-01-10T03:09:48;34.70;;;21.63;;
4595;SDS011;2310;49.978;8.742;2024-01-10T03:13:52;37.80;;;21.60;;
4595;SDS011;2310;49.978;8.742;2024-01-10T03:17:55;39.70;;;22.60;;
4595;SDS011;2310;49.978;8.742;2024-01-10T03:21:57;34.97;;;21.10;;
4595;SDS011;2310;49.978;8.742;2024-01-10T03:25:58;38.27;;;21.70;;
4595;SDS011;2310;49.978;8.742;2024-01-10T03:29:59;35.20;;;19.50;;
4595;SDS011;2310;49.978;8.742;2024-01-10T03:34:01;41.40;;;22.60;;
4595;SDS011;2310;49.978;8.742;2024-01-10T03:38:04;36.53;;;23.53;;
4595;SDS011;2310;49.978;8.742;2024-01-10T03:42:06;41.07;;;24.23;;
4595;SDS011;2310;49.978;8.742;2024-01-10T03:46:10;33.13;;;21.30;;
4595;SDS011;2310;49.978;8.742;2024-01-10T03:50:12;33.97;;;22.07;;
4595;SDS011;2310;49.978;8.742;2024-01-10T03:54:13;34.93;;;21.03;;
4595;SDS011;2310;49.978;8.742;2024-01-10T03:58:14;37.50;;;22.87;;
4595;SDS011;2310;49.978;8.742;2024-01-10T04:02:16;34.63;;;22.80;;
4595;SDS011;2310;49.978;8.742;2024-01-10T04:06:17;33.67;;;21.07;;
4595;SDS011;2310;49.978;8.742;2024-01-10T04:10:19;30.30;;;19.43;;
4595;SDS011;2310;49.978;8.742;2024-01-10T04:14:20;33.17;;;21.80;;
4595;SDS011;2310;49.978;8.742;2024-01-10T04:18:22;34.30;;;21.90;;
4595;SDS011;2310;49.978;8.742;2024-01-10T04:22:23;40.37;;;21.97;;
4595;SDS011;2310;49.978;8.742;2024-01-10T04:26:25;38.97;;;20.87;;
4595;SDS011;2310;49.978;8.742;2024-01-10T04:30:26;32.87;;;20.67;;
4595;SDS011;2310;49.978;8.742;2024-01-10T04:34:28;38.33;;;19.83;;
4595;SDS011;2310;49.978;8.742;2024-01-10T04:38:29;30.43;;;19.70;;
4595;SDS011;2310;49.978;8.742;2024-01-10T04:42:31;34.97;;;20.13;;
4595;SDS011;2310;49.978;8.742;2024-01-10T04:46:32;41.03;;;23.47;;
4595;SDS011;2310;49.978;8.742;2024-01-10T04:50:35;30.60;;;21.70;;
4595;SDS011;2310;49.978;8.742;2024-01-10T04:54:36;36.80;;;21.60;;
4595;SDS011;2310;49.978;8.742;2024-01-10T04:58:38;38.30;;;21.50;;
4595;SDS011;2310;49.978;8.742;2024-01-10T05:02:39;39.23;;;20.33;;
4595;SDS011;2310;49.978;8.742;2024-01-10T05:06:41;34.70;;;19.23;;
4595;SDS011;2310;49.978;8.742;2024-01-10T05:10:42;34.60;;;21.10;;
4595;SDS011;2310;49.978;8.742;2024-01-10T05:14:43;38.27;;;23.50;;
4595;SDS011;2310;49.978;8.742;2024-01-10T05:18:45;29.93;;;20.57;;
4595;SDS011;2310;49.978;8.742;2024-01-10T05:22:47;35.20;;;19.40;;
4595;SDS011;2310;49.978;8.742;2024-01-10T05:26:49;38.53;;;21.53;;
4595;SDS011;2310;49.978;8.742;2024-01-10T05:30:52;34.50;;;21.00;;
4595;SDS011;2310;49.978;8.742;2024-01-10T05:34:55;32.90;;;19.13;;
4595;SDS011;2310;49.978;8.742;2024-01-10T05:38:56;32.47;;;20.33;;
4595;SDS011;2310;49.978;8.742;2024-01-10T05:42:58;42.63;;;24.33;;
4595;SDS011;2310;49.978;8.742;2024-01-10T05:47:03;34.93;;;22.13;;
4595;SDS011;2310;49.978;8.742;2024-01-10T05:51:04;40.43;;;21.27;;
4595;SDS011;2310;49.978;8.742;2024-01-10T05:55:10;33.07;;;20.47;;
4595;SDS011;2310;49.978;8.742;2024-01-10T05:59:11;37.33;;;19.53;;
4595;SDS011;2310;49.978;8.742;2024-01-10T06:03:12;33.07;;;20.90;;
4595;SDS011;2310;49.978;8.742;2024-01-10T06:07:15;31.97;;;21.37;;
4595;SDS011;2310;49.978;8.742;2024-01-10T06:11:17;37.83;;;22.37;;
4595;SDS011;2310;49.978;8.742;2024-01-10T06:15:19;39.20;;;21.77;;
4595;SDS011;2310;49.978;8.742;2024-01-10T06:19:20;31.90;;;21.17;;
4595;SDS011;2310;49.978;8.742;2024-01-10T06:23:22;36.93;;;21.50;;
4595;SDS011;2310;49.978;8.742;2024-01-10T06:27:24;40.63;;;24.43;;
4595;SDS011;2310;49.978;8.742;2024-01-10T06:31:25;33.53;;;21.40;;
4595;SDS011;2310;49.978;8.742;2024-01-10T06:35:27;39.53;;;22.40;;
4595;SDS011;2310;49.978;8.742;2024-01-10T06:39:29;32.17;;;19.30;;
4595;SDS011;2310;49.978;8.742;2024-01-10T06:43:30;34.90;;;20.97;;
4595;SDS011;2310;49.978;8.742;2024-01-10T06:47:32;39.27;;;23.40;;
4595;SDS011;2310;49.978;8.742;2024-01-10T06:51:34;37.00;;;24.53;;
4595;SDS011;2310;49.978;8.742;2024-01-10T06:55:36;35.43;;;21.83;;
4595;SDS011;2310;49.978;8.742;2024-01-10T06:59:38;37.27;;;23.20;;
4595;SDS011;2310;49.978;8.742;2024-01-10T07:03:40;42.00;;;25.17;;
4595;SDS011;2310;49.978;8.742;2024-01-10T07:07:42;39.47;;;22.80;;
4595;SDS011;2310;49.978;8.742;2024-01-10T07:11:47;41.17;;;23.93;;
4595;SDS011;2310;49.978;8.742;2024-01-10T07:15:49;39.57;;;25.67;;
4595;SDS011;2310;49.978;8.742;2024-01-10T07:19:53;38.00;;;23.80;;
4595;SDS011;2310;49.978;8.742;2024-01-10T07:23:56;39.57;;;23.87;;
4595;SDS011;2310;49.978;8.742;2024-01-10T07:27:58;41.17;;;24.10;;
4595;SDS011;2310;49.978;8.742;2024-01-10T07:32:00;38.83;;;24.27;;
4595;SDS011;2310;49.978;8.742;2024-01-10T07:36:01;38.97;;;23.77;;
4595;SDS011;2310;49.978;8.742;2024-01-10T07:40:04;41.50;;;23.80;;
4595;SDS011;2310;49.978;8.742;2024-01-10T07:44:09;32.93;;;22.13;;
4595;SDS011;2310;49.978;8.742;2024-01-10T07:48:11;41.30;;;25.77;;
4595;SDS011;2310;49.978;8.742;2024-01-10T07:52:13;43.00;;;25.23;;
4595;SDS011;2310;49.978;8.742;2024-01-10T07:56:14;40.40;;;23.77;;
4595;SDS011;2310;49.978;8.742;2024-01-10T08:00:16;39.80;;;24.57;;
4595;SDS011;2310;49.978;8.742;2024-01-10T08:04:21;37.33;;;21.60;;
4595;SDS011;2310;49.978;8.742;2024-01-10T08:08:24;42.87;;;25.43;;
4595;SDS011;2310;49.978;8.742;2024-01-10T08:12:26;41.50;;;24.80;;
4595;SDS011;2310;49.978;8.742;2024-01-10T08:16:27;36.93;;;25.07;;
4595;SDS011;2310;49.978;8.742;2024-01-10T08:20:28;41.13;;;23.40;;
4595;SDS011;2310;49.978;8.742;2024-01-10T08:24:30;35.53;;;22.73;;
4595;SDS011;2310;49.978;8.742;2024-01-10T08:28:31;34.00;;;21.93;;
4595;SDS011;2310;49.978;8.742;2024-01-10T08:32:33;43.00;;;24.77;;
4595;SDS011;2310;49.978;8.742;2024-01-10T08:36:36;33.43;;;24.33;;
4595;SDS011;2310;49.978;8.742;2024-01-10T08:40:38;36.33;;;23.80;;
4595;SDS011;2310;49.978;8.742;2024-01-10T08:44:39;41.20;;;24.47;;
4595;SDS011;2310;49.978;8.742;2024-01-10T08:48:41;38.40;;;23.67;;
4595;SDS011;2310;49.978;8.742;2024-01-10T08:52:43;39.50;;;25.17;;
4595;SDS011;2310;49.978;8.742;2024-01-10T08:56:45;33.97;;;20.70;;
4595;SDS011;2310;49.978;8.742;2024-01-10T09:00:47;37.00;;;22.93;;
4595;SDS011;2310;49.978;8.742;2024-01-10T09:04:48;37.90;;;22.33;;
4595;SDS011;2310;49.978;8.742;2024-01-10T09:08:51;42.00;;;24.63;;
4595;SDS011;2310;49.978;8.742;2024-01-10T09:12:54;37.00;;;23.97;;
4595;SDS011;2310;49.978;8.742;2024-01-10T09:16:55;36.43;;;23.20;;
4595;SDS011;2310;49.978;8.742;2024-01-10T09:20:57;31.40;;;22.67;;
4595;SDS011;2310;49.978;8.742;2024-01-10T09:24:59;40.20;;;24.40;;
4595;SDS011;2310;49.978;8.742;2024-01-10T09:29:02;35.57;;;22.30;;
4595;SDS011;2310;49.978;8.742;2024-01-10T09:33:03;32.50;;;22.90;;
4595;SDS011;2310;49.978;8.742;2024-01-10T09:37:05;32.57;;;22.23;;
4595;SDS011;2310;49.978;8.742;2024-01-10T09:41:07;34.80;;;23.93;;
4595;SDS011;2310;49.978;8.742;2024-01-10T09:45:10;41.93;;;22.27;;
4595;SDS011;2310;49.978;8.742;2024-01-10T09:49:14;36.67;;;24.73;;
4595;SDS011;2310;49.978;8.742;2024-01-10T09:53:21;35.60;;;22.87;;
4595;SDS011;2310;49.978;8.742;2024-01-10T09:57:32;38.17;;;22.90;;
4595;SDS011;2310;49.978;8.742;2024-01-10T10:01:35;40.07;;;22.93;;
4595;SDS011;2310;49.978;8.742;2024-01-10T10:05:37;32.57;;;22.47;;
4595;SDS011;2310;49.978;8.742;2024-01-10T10:09:39;40.00;;;26.43;;
4595;SDS011;2310;49.978;8.742;2024-01-10T10:13:41;37.53;;;22.17;;
4595;SDS011;2310;49.978;8.742;2024-01-10T10:17:43;37.20;;;23.80;;
4595;SDS011;2310;49.978;8.742;2024-01-10T10:21:50;43.60;;;27.53;;
4595;SDS011;2310;49.978;8.742;2024-01-10T10:25:52;33.47;;;21.57;;
4595;SDS011;2310;49.978;8.742;2024-01-10T10:29:53;40.67;;;26.37;;
4595;SDS011;2310;49.978;8.742;2024-01-10T10:33:54;38.80;;;24.30;;
4595;SDS011;2310;49.978;8.742;2024-01-10T10:37:56;37.50;;;24.43;;
4595;SDS011;2310;49.978;8.742;2024-01-10T10:42:00;47.63;;;30.43;;
4595;SDS011;2310;49.978;8.742;2024-01-10T10:46:06;56.13;;;36.23;;
4595;SDS011;2310;49.978;8.742;2024-01-10T10:50:15;34.33;;;21.57;;
4595;SDS011;2310;49.978;8.742;2024-01-10T10:54:21;29.10;;;20.47;;
4595;SDS011;2310;49.978;8.742;2024-01-10T10:58:23;41.23;;;23.43;;
4595;SDS011;2310;49.978;8.742;2024-01-10T11:02:26;32.43;;;21.57;;
4595;SDS011;2310;49.978;8.742;2024-01-10T11:06:29;32.63;;;21.77;;
4595;SDS011;2310;49.978;8.742;2024-01-10T11:10:32;28.30;;;20.80;;
4595;SDS011;2310;49.978;8.742;2024-01-10T11:14:48;31.40;;;21.53;;
4595;SDS011;2310;49.978;8.742;2024-01-10T11:27:25;37.30;;;24.47;;
4595;SDS011;2310;49.978;8.742;2024-01-10T11:31:28;38.23;;;24.27;;
4595;SDS011;2310;49.978;8.742;2024-01-10T11:35:30;34.47;;;24.27;;
4595;SDS011;2310;49.978;8.742;2024-01-10T11:39:34;40.40;;;23.27;;
4595;SDS011;2310;49.978;8.742;2024-01-10T11:43:36;36.33;;;24.87;;
4595;SDS011;2310;49.978;8.742;2024-01-10T11:47:41;37.33;;;23.40;;
4595;SDS011;2310;49.978;8.742;2024-01-10T11:51:44;30.00;;;22.50;;
4595;SDS011;2310;49.978;8.742;2024-01-10T11:55:51;36.60;;;22.27;;
4595;SDS011;2310;49.978;8.742;2024-01-10T11:59:53;36.57;;;23.00;;
4595;SDS011;2310;49.978;8.742;2024-01-10T12:03:56;34.20;;;23.80;;
4595;SDS011;2310;49.978;8.742;2024-01-10T12:08:04;33.33;;;22.27;;
4595;SDS011;2310;49.978;8.742;2024-01-10T12:12:07;34.83;;;23.77;;
4595;SDS011;2310;49.978;8.742;2024-01-10T12:16:12;34.87;;;23.07;;
4595;SDS011;2310;49.978;8.742;2024-01-10T12:20:14;38.43;;;24.90;;
4595;SDS011;2310;49.978;8.742;2024-01-10T12:24:16;36.40;;;24.80;;
4595;SDS011;2310;49.978;8.742;2024-01-10T12:28:18;30.70;;;22.73;;
4595;SDS011;2310;49.978;8.742;2024-01-10T12:32:20;33.37;;;22.83;;
4595;SDS011;2310;49.978;8.742;2024-01-10T12:36:23;33.27;;;22.63;;
4595;SDS011;2310;49.978;8.742;2024-01-10T12:40:25;33.93;;;23.80;;
4595;SDS011;2310;49.978;8.742;2024-01-10T12:44:32;33.50;;;22.90;;
4595;SDS011;2310;49.978;8.742;2024-01-10T12:48:35;28.73;;;22.60;;
4595;SDS011;2310;49.978;8.742;2024-01-10T12:52:40;31.80;;;20.53;;
4595;SDS011;2310;49.978;8.742;2024-01-10T12:56:43;29.13;;;19.70;;
4595;SDS011;2310;49.978;8.742;2024-01-10T13:00:47;33.10;;;22.80;;
4595;SDS011;2310;49.978;8.742;2024-01-10T13:04:48;40.60;;;22.20;;
4595;SDS011;2310;49.978;8.742;2024-01-10T13:08:49;34.83;;;22.23;;
4595;SDS011;2310;49.978;8.742;2024-01-10T13:12:51;31.53;;;21.80;;
4595;SDS011;2310;49.978;8.742;2024-01-10T13:16:54;35.57;;;22.17;;
4595;SDS011;2310;49.978;8.742;2024-01-10T13:20:57;26.27;;;18.00;;
4595;SDS011;2310;49.978;8.742;2024-01-10T13:24:59;39.10;;;23.70;;
4595;SDS011;2310;49.978;8.742;2024-01-10T13:29:00;31.07;;;21.57;;
4595;SDS011;2310;49.978;8.742;2024-01-10T13:33:03;31.57;;;20.10;;
4595;SDS011;2310;49.978;8.742;2024-01-10T13:37:05;31.30;;;20.13;;
4595;SDS011;2310;49.978;8.742;2024-01-10T13:41:06;26.47;;;18.87;;
4595;SDS011;2310;49.978;8.742;2024-01-10T13:45:08;37.33;;;22.00;;
4595;SDS011;2310;49.978;8.742;2024-01-10T13:49:12;30.40;;;19.33;;
4595;SDS011;2310;49.978;8.742;2024-01-10T13:53:15;32.27;;;18.70;;
4595;SDS011;2310;49.978;8.742;2024-01-10T13:57:18;23.77;;;16.37;;
4595;SDS011;2310;49.978;8.742;2024-01-10T14:01:19;24.80;;;18.10;;
4595;SDS011;2310;49.978;8.742;2024-01-10T14:05:21;24.73;;;17.80;;
4595;SDS011;2310;49.978;8.742;2024-01-10T14:09:22;27.37;;;18.23;;
4595;SDS011;2310;49.978;8.742;2024-01-10T14:13:25;24.47;;;17.03;;
4595;SDS011;2310;49.978;8.742;2024-01-10T14:17:27;31.13;;;19.10;;
4595;SDS011;2310;49.978;8.742;2024-01-10T14:21:28;29.77;;;20.40;;
4595;SDS011;2310;49.978;8.742;2024-01-10T14:25:32;27.90;;;18.30;;
4595;SDS011;2310;49.978;8.742;2024-01-10T14:29:35;29.07;;;19.03;;
4595;SDS011;2310;49.978;8.742;2024-01-10T14:33:37;30.53;;;20.90;;
4595;SDS011;2310;49.978;8.742;2024-01-10T14:37:38;30.93;;;18.70;;
4595;SDS011;2310;49.978;8.742;2024-01-10T14:41:40;28.53;;;18.53;;
4595;SDS011;2310;49.978;8.742;2024-01-10T14:45:42;29.07;;;18.33;;
4595;SDS011;2310;49.978;8.742;2024-01-10T14:49:43;27.30;;;18.17;;
4595;SDS011;2310;49.978;8.742;2024-01-10T14:53:45;27.83;;;18.43;;
4595;SDS011;2310;49.978;8.742;2024-01-10T14:57:46;33.77;;;21.17;;
4595;SDS011;2310;49.978;8.742;2024-01-10T15:01:48;32.27;;;21.43;;
4595;SDS011;2310;49.978;8.742;2024-01-10T15:05:50;30.57;;;20.70;;
4595;SDS011;2310;49.978;8.742;2024-01-10T15:09:52;27.40;;;18.90;;
4595;SDS011;2310;49.978;8.742;2024-01-10T15:13:54;31.20;;;20.70;;
4595;SDS011;2310;49.978;8.742;2024-01-10T15:17:56;25.70;;;18.90;;
4595;SDS011;2310;49.978;8.742;2024-01-10T15:21:57;35.53;;;22.80;;
4595;SDS011;2310;49.978;8.742;2024-01-10T15:26:02;34.80;;;24.00;;
4595;SDS011;2310;49.978;8.742;2024-01-10T15:30:04;36.20;;;24.80;;
4595;SDS011;2310;49.978;8.742;2024-01-10T15:34:08;39.93;;;28.83;;
4595;SDS011;2310;49.978;8.742;2024-01-10T15:38:10;36.23;;;26.90;;
4595;SDS011;2310;49.978;8.742;2024-01-10T15:42:11;33.03;;;22.50;;
4595;SDS011;2310;49.978;8.742;2024-01-10T15:46:17;33.87;;;25.83;;
4595;SDS011;2310;49.978;8.742;2024-01-10T15:50:20;34.73;;;26.77;;
4595;SDS011;2310;49.978;8.742;2024-01-10T15:54:22;40.83;;;29.80;;
4595;SDS011;2310;49.978;8.742;2024-01-10T15:58:24;40.40;;;28.30;;
4595;SDS011;2310;49.978;8.742;2024-01-10T16:02:28;34.57;;;26.07;;
4595;SDS011;2310;49.978;8.742;2024-01-10T16:06:32;53.77;;;36.37;;
4595;SDS011;2310;49.978;8.742;2024-01-10T16:10:35;51.57;;;35.10;;
4595;SDS011;2310;49.978;8.742;2024-01-10T16:14:36;40.63;;;27.00;;
4595;SDS011;2310;49.978;8.742;2024-01-10T16:18:39;35.93;;;24.03;;
4595;SDS011;2310;49.978;8.742;2024-01-10T16:22:41;41.70;;;30.00;;
4595;SDS011;2310;49.978;8.742;2024-01-10T16:26:42;43.93;;;32.10;;
4595;SDS011;2310;49.978;8.742;2024-01-10T16:30:43;44.67;;;32.00;;
4595;SDS011;2310;49.978;8.742;2024-01-10T16:34:45;41.33;;;28.70;;
4595;SDS011;2310;49.978;8.742;2024-01-10T16:38:47;49.80;;;31.83;;
4595;SDS011;2310;49.978;8.742;2024-01-10T16:42:49;48.50;;;34.83;;
4595;SDS011;2310;49.978;8.742;2024-01-10T16:46:50;48.70;;;33.93;;
4595;SDS011;2310;49.978;8.742;2024-01-10T16:50:51;54.37;;;37.50;;
4595;SDS011;2310;49.978;8.742;2024-01-10T16:54:53;52.20;;;38.40;;
4595;SDS011;2310;49.978;8.742;2024-01-10T16:58:54;50.30;;;38.27;;
4595;SDS011;2310;49.978;8.742;2024-01-10T17:02:58;49.00;;;33.77;;
4595;SDS011;2310;49.978;8.742;2024-01-10T17:07:02;49.40;;;34.67;;
4595;SDS011;2310;49.978;8.742;2024-01-10T17:11:03;46.13;;;34.00;;
4595;SDS011;2310;49.978;8.742;2024-01-10T17:15:06;52.93;;;37.67;;
4595;SDS011;2310;49.978;8.742;2024-01-10T17:19:09;63.70;;;40.47;;
4595;SDS011;2310;49.978;8.742;2024-01-10T17:23:11;51.60;;;34.63;;
4595;SDS011;2310;49.978;8.742;2024-01-10T17:27:14;54.70;;;38.27;;
4595;SDS011;2310;49.978;8.742;2024-01-10T17:31:15;48.13;;;35.57;;
4595;SDS011;2310;49.978;8.742;2024-01-10T17:35:17;49.17;;;33.23;;
4595;SDS011;2310;49.978;8.742;2024-01-10T17:39:19;44.53;;;31.63;;
4595;SDS011;2310;49.978;8.742;2024-01-10T17:43:21;46.57;;;31.23;;
4595;SDS011;2310;49.978;8.742;2024-01-10T17:47:22;46.03;;;32.13;;
4595;SDS011;2310;49.978;8.742;2024-01-10T17:51:25;52.93;;;32.80;;
4595;SDS011;2310;49.978;8.742;2024-01-10T17:55:28;54.63;;;37.57;;
4595;SDS011;2310;49.978;8.742;2024-01-10T17:59:30;44.60;;;32.10;;
4595;SDS011;2310;49.978;8.742;2024-01-10T18:03:31;49.37;;;35.43;;
4595;SDS011;2310;49.978;8.742;2024-01-10T18:07:33;51.93;;;33.70;;
4595;SDS011;2310;49.978;8.742;2024-01-10T18:11:34;48.27;;;31.87;;
4595;SDS011;2310;49.978;8.742;2024-01-10T18:15:38;48.30;;;30.60;;
4595;SDS011;2310;49.978;8.742;2024-01-10T18:19:40;46.10;;;33.03;;
4595;SDS011;2310;49.978;8.742;2024-01-10T18:23:42;48.17;;;32.50;;
4595;SDS011;2310;49.978;8.742;2024-01-10T18:27:45;51.13;;;33.03;;
4595;SDS011;2310;49.978;8.742;2024-01-10T18:31:48;45.10;;;34.47;;
4595;SDS011;2310;49.978;8.742;2024-01-10T18:35:49;50.93;;;35.97;;
4595;SDS011;2310;49.978;8.742;2024-01-10T18:39:52;53.33;;;35.27;;
4595;SDS011;2310;49.978;8.742;2024-01-10T18:43:54;44.07;;;32.43;;
4595;SDS011;2310;49.978;8.742;2024-01-10T18:47:56;44.63;;;31.90;;
4595;SDS011;2310;49.978;8.742;2024-01-10T18:51:57;52.37;;;33.37;;
4595;SDS011;2310;49.978;8.742;2024-01-10T18:55:59;48.87;;;33.40;;
4595;SDS011;2310;49.978;8.742;2024-01-10T19:00:04;53.30;;;33.03;;
4595;SDS011;2310;49.978;8.742;2024-01-10T19:04:06;46.43;;;31.30;;
4595;SDS011;2310;49.978;8.742;2024-01-10T19:08:08;53.60;;;35.13;;
4595;SDS011;2310;49.978;8.742;2024-01-10T19:12:10;50.23;;;36.97;;
4595;SDS011;2310;49.978;8.742;2024-01-10T19:16:11;50.50;;;33.90;;
4595;SDS011;2310;49.978;8.742;2024-01-10T19:20:14;51.83;;;35.43;;
4595;SDS011;2310;49.978;8.742;2024-01-10T19:24:16;48.43;;;36.20;;
4595;SDS011;2310;49.978;8.742;2024-01-10T19:28:18;44.73;;;32.77;;
4595;SDS011;2310;49.978;8.742;2024-01-10T19:32:19;56.20;;;39.03;;
4595;SDS011;2310;49.978;8.742;2024-01-10T19:36:21;62.67;;;39.87;;
4595;SDS011;2310;49.978;8.742;2024-01-10T19:40:24;53.03;;;36.50;;
4595;SDS011;2310;49.978;8.742;2024-01-10T19:44:25;52.80;;;36.10;;
4595;SDS011;2310;49.978;8.742;2024-01-10T19:48:27;46.30;;;33.10;;
4595;SDS011;2310;49.978;8.742;2024-01-10T19:52:28;48.70;;;32.97;;
4595;SDS011;2310;49.978;8.742;2024-01-10T19:56:30;49.23;;;30.90;;
4595;SDS011;2310;49.978;8.742;2024-01-10T20:00:33;47.50;;;31.47;;
4595;SDS011;2310;49.978;8.742;2024-01-10T20:04:35;47.77;;;31.40;;
4595;SDS011;2310;49.978;8.742;2024-01-10T20:08:36;48.57;;;33.70;;
4595;SDS011;2310;49.978;8.742;2024-01-10T20:12:38;50.00;;;35.50;;
4595;SDS011;2310;49.978;8.742;2024-01-10T20:16:39;44.30;;;30.37;;
4595;SDS011;2310;49.978;8.742;2024-01-10T20:20:40;55.70;;;32.30;;
4595;SDS011;2310;49.978;8.742;2024-01-10T20:24:42;49.83;;;33.47;;
4595;SDS011;2310;49.978;8.742;2024-01-10T20:28:43;47.07;;;31.17;;
4595;SDS011;2310;49.978;8.742;2024-01-10T20:32:45;48.80;;;32.67;;
4595;SDS011;2310;49.978;8.742;2024-01-10T20:36:46;52.73;;;35.13;;
4595;SDS011;2310;49.978;8.742;2024-01-10T20:40:48;49.80;;;34.57;;
4595;SDS011;2310;49.978;8.742;2024-01-10T20:44:50;48.40;;;32.40;;
4595;SDS011;2310;49.978;8.742;2024-01-10T20:48:51;50.13;;;34.07;;
4595;SDS011;2310;49.978;8.742;2024-01-10T20:52:54;43.77;;;30.47;;
4595;SDS011;2310;49.978;8.742;2024-01-10T20:56:56;51.77;;;30.97;;
4595;SDS011;2310;49.978;8.742;2024-01-10T21:00:57;48.90;;;31.50;;
4595;SDS011;2310;49.978;8.742;2024-01-10T21:04:59;45.73;;;31.67;;
4595;SDS011;2310;49.978;8.742;2024-01-10T21:09:01;47.77;;;34.37;;
4595;SDS011;2310;49.978;8.742;2024-01-10T21:13:04;46.13;;;32.80;;
4595;SDS011;2310;49.978;8.742;2024-01-10T21:17:05;47.47;;;32.80;;
4595;SDS011;2310;49.978;8.742;2024-01-10T21:21:07;46.20;;;31.57;;
4595;SDS011;2310;49.978;8.742;2024-01-10T21:25:08;48.77;;;33.97;;
4595;SDS011;2310;49.978;8.742;2024-01-10T21:29:11;52.13;;;34.37;;
4595;SDS011;2310;49.978;8.742;2024-01-10T21:33:12;57.60;;;40.60;;
4595;SDS011;2310;49.978;8.742;2024-01-10T21:37:14;62.37;;;41.43;;
4595;SDS011;2310;49.978;8.742;2024-01-10T21:41:16;59.60;;;36.60;;
4595;SDS011;2310;49.978;8.742;2024-01-10T21:45:18;54.33;;;38.57;;
4595;SDS011;2310;49.978;8.742;2024-01-10T21:49:22;54.80;;;35.43;;
4595;SDS011;2310;49.978;8.742;2024-01-10T21:53:23;49.00;;;34.20;;
4595;SDS011;2310;49.978;8.742;2024-01-10T21:57:25;50.33;;;31.43;;
4595;SDS011;2310;49.978;8.742;2024-01-10T22:01:26;53.93;;;35.93;;
4595;SDS011;2310;49.978;8.742;2024-01-10T22:05:27;44.43;;;32.53;;
4595;SDS011;2310;49.978;8.742;2024-01-10T22:09:30;44.33;;;30.73;;
4595;SDS011;2310;49.978;8.742;2024-01-10T22:13:31;45.73;;;32.10;;
4595;SDS011;2310;49.978;8.742;2024-01-10T22:17:32;51.00;;;34.43;;
4595;SDS011;2310;49.978;8.742;2024-01-10T22:21:35;51.60;;;32.20;;
4595;SDS011;2310;49.978;8.742;2024-01-10T22:25:36;42.97;;;30.63;;
4595;SDS011;2310;49.978;8.742;2024-01-10T22:29:39;48.93;;;32.37;;
4595;SDS011;2310;49.978;8.742;2024-01-10T22:33:40;46.57;;;31.10;;
4595;SDS011;2310;49.978;8.742;2024-01-10T22:37:42;45.50;;;31.20;;
4595;SDS011;2310;49.978;8.742;2024-01-10T22:41:44;51.97;;;30.03;;
4595;SDS011;2310;49.978;8.742;2024-01-10T22:45:45;45.80;;;34.13;;
4595;SDS011;2310;49.978;8.742;2024-01-10T22:49:46;44.70;;;31.73;;
4595;SDS011;2310;49.978;8.742;2024-01-10T22:53:48;49.23;;;33.80;;
4595;SDS011;2310;49.978;8.742;2024-01-10T22:57:49;47.17;;;30.50;;
4595;SDS011;2310;49.978;8.742;2024-01-10T23:01:52;48.40;;;29.60;;
4595;SDS011;2310;49.978;8.742;2024-01-10T23:05:54;42.50;;;30.90;;
4595;SDS011;2310;49.978;8.742;2024-01-10T23:09:55;47.77;;;30.03;;
4595;SDS011;2310;49.978;8.742;2024-01-10T23:13:57;49.37;;;31.60;;
4595;SDS011;2310;49.978;8.742;2024-01-10T23:17:58;45.00;;;29.93;;
4595;SDS011;2310;49.978;8.742;2024-01-10T23:22:01;50.00;;;30.30;;
4595;SDS011;2310;49.978;8.742;2024-01-10T23:26:06;48.90;;;31.37;;
4595;SDS011;2310;49.978;8.742;2024-01-10T23:30:08;57.90;;;31.40;;
4595;SDS011;2310;49.978;8.742;2024-01-10T23:34:11;48.30;;;32.63;;
4595;SDS011;2310;49.978;8.742;2024-01-10T23:38:15;48.07;;;31.10;;
4595;SDS011;2310;49.978;8.742;2024-01-10T23:42:17;45.37;;;29.17;;
4595;SDS011;2310;49.978;8.742;2024-01-10T23:46:18;46.30;;;29.17;;
4595;SDS011;2310;49.978;8.742;2024-01-10T23:50:19;44.33;;;30.83;;
4595;SDS011;2310;49.978;8.742;2024-01-10T23:54:20;45.10;;;31.30;;
4595;SDS011;2310;49.978;8.742;2024-01-10T23:58:22;44.03;;;28.60;;
